sensor_id;sensor_type;location;lat;lon;timestamp;pressure;altitude;pressure_sealevel;temperature;humidity
9676;BME280;4876;42.656;23.292;2023-05-07T00:02:04;94590.47;;;12.23;78.79
9676;BME280;4876;42.656;23.292;2023-05-07T00:04:30;94584.13;;;12.24;78.84
9676;BME280;4876;42.656;23.292;2023-05-07T00:07:01;94580.22;;;12.30;78.27
9676;BME280;4876;42.656;23.292;2023-05-07T00:09:29;94589.03;;;12.34;77.90
9676;BME280;4876;42.656;23.292;2023-05-07T00:11:56;94585.97;;;12.24;78.07
9676;BME280;4876;42.656;23.292;2023-05-07T00:14:23;94590.81;;;12.13;78.70
9676;BME280;4876;42.656;23.292;2023-05-07T00:16:49;94594.97;;;12.14;78.82
9676;BME280;4876;42.656;23.292;2023-05-07T00:19:17;94581.03;;;12.13;78.30
9676;BME280;4876;42.656;23.292;2023-05-07T00:21:44;94576.53;;;12.14;78.52
9676;BME280;4876;42.656;23.292;2023-05-07T00:24:11;94572.34;;;12.04;78.80
9676;BME280;4876;42.656;23.292;2023-05-07T00:26:38;94562.28;;;11.98;78.92
9676;BME280;4876;42.656;23.292;2023-05-07T00:29:05;94574.84;;;11.92;79.00
9676;BME280;4876;42.656;23.292;2023-05-07T00:31:31;94571.91;;;11.94;79.18
9676;BME280;4876;42.656;23.292;2023-05-07T00:33:58;94570.19;;;11.98;79.01
9676;BME280;4876;42.656;23.292;2023-05-07T00:36:26;94563.03;;;11.98;78.64
9676;BME280;4876;42.656;23.292;2023-05-07T00:38:53;94571.28;;;11.97;78.49
9676;BME280;4876;42.656;23.292;2023-05-07T00:41:20;94510.38;;;11.55;78.22
9676;BME280;4876;42.656;23.292;2023-05-07T00:43:47;94573.28;;;11.91;79.10
9676;BME280;4876;42.656;23.292;2023-05-07T00:46:17;94575.63;;;11.93;78.64
9676;BME280;4876;42.656;23.292;2023-05-07T00:48:44;94584.59;;;11.92;78.73
9676;BME280;4876;42.656;23.292;2023-05-07T00:51:11;94566.16;;;11.74;78.59
9676;BME280;4876;42.656;23.292;2023-05-07T00:53:40;94589.75;;;11.88;78.68
9676;BME280;4876;42.656;23.292;2023-05-07T00:56:07;94579.34;;;11.83;78.89
9676;BME280;4876;42.656;23.292;2023-05-07T00:58:34;94588.47;;;11.85;78.47
9676;BME280;4876;42.656;23.292;2023-05-07T01:01:01;94583.38;;;11.80;78.79
9676;BME280;4876;42.656;23.292;2023-05-07T01:03:28;94586.16;;;11.75;78.88
9676;BME280;4876;42.656;23.292;2023-05-07T01:05:56;94587.84;;;11.71;79.30
9676;BME280;4876;42.656;23.292;2023-05-07T01:08:24;94590.03;;;11.69;78.62
9676;BME280;4876;42.656;23.292;2023-05-07T01:10:55;94583.34;;;11.63;78.56
9676;BME280;4876;42.656;23.292;2023-05-07T01:13:24;94583.19;;;11.51;78.82
9676;BME280;4876;42.656;23.292;2023-05-07T01:15:51;94583.19;;;11.51;78.83
9676;BME280;4876;42.656;23.292;2023-05-07T01:18:18;94583.66;;;11.53;79.46
9676;BME280;4876;42.656;23.292;2023-05-07T01:20:45;94580.56;;;11.51;80.05
9676;BME280;4876;42.656;23.292;2023-05-07T01:23:13;94575.44;;;11.46;80.41
9676;BME280;4876;42.656;23.292;2023-05-07T01:25:40;94577.72;;;11.21;80.63
9676;BME280;4876;42.656;23.292;2023-05-07T01:28:07;94576.63;;;11.22;80.82
9676;BME280;4876;42.656;23.292;2023-05-07T01:30:34;94577.03;;;10.90;82.08
9676;BME280;4876;42.656;23.292;2023-05-07T01:33:04;94582.44;;;10.85;82.47
9676;BME280;4876;42.656;23.292;2023-05-07T01:35:40;94577.47;;;10.74;83.16
9676;BME280;4876;42.656;23.292;2023-05-07T01:38:08;94568.94;;;10.69;83.76
9676;BME280;4876;42.656;23.292;2023-05-07T01:40:36;94569.97;;;10.68;84.15
9676;BME280;4876;42.656;23.292;2023-05-07T01:43:04;94572.47;;;10.73;83.58
9676;BME280;4876;42.656;23.292;2023-05-07T01:45:32;94566.41;;;10.64;83.27
9676;BME280;4876;42.656;23.292;2023-05-07T01:48:01;94563.34;;;10.70;83.88
9676;BME280;4876;42.656;23.292;2023-05-07T01:50:28;94561.38;;;10.76;83.82
9676;BME280;4876;42.656;23.292;2023-05-07T01:52:56;94555.34;;;10.75;83.92
9676;BME280;4876;42.656;23.292;2023-05-07T01:55:22;94545.91;;;10.74;83.76
9676;BME280;4876;42.656;23.292;2023-05-07T01:57:50;94554.25;;;10.76;83.88
9676;BME280;4876;42.656;23.292;2023-05-07T02:00:18;94546.81;;;10.78;83.85
9676;BME280;4876;42.656;23.292;2023-05-07T02:02:45;94540.97;;;10.42;85.09
9676;BME280;4876;42.656;23.292;2023-05-07T02:05:12;94541.78;;;10.51;85.14
9676;BME280;4876;42.656;23.292;2023-05-07T02:07:39;94544.13;;;10.61;85.20
9676;BME280;4876;42.656;23.292;2023-05-07T02:10:06;94552.00;;;10.61;84.69
9676;BME280;4876;42.656;23.292;2023-05-07T02:12:33;94510.19;;;10.42;84.80
9676;BME280;4876;42.656;23.292;2023-05-07T02:15:01;94538.03;;;10.43;85.10
9676;BME280;4876;42.656;23.292;2023-05-07T02:17:28;94532.25;;;10.33;85.05
9676;BME280;4876;42.656;23.292;2023-05-07T02:19:57;94533.34;;;10.32;85.25
9676;BME280;4876;42.656;23.292;2023-05-07T02:22:23;94543.50;;;10.24;85.54
9676;BME280;4876;42.656;23.292;2023-05-07T02:24:50;94536.09;;;10.04;87.01
9676;BME280;4876;42.656;23.292;2023-05-07T02:27:17;94529.69;;;9.88;88.34
9676;BME280;4876;42.656;23.292;2023-05-07T02:29:44;94539.16;;;9.97;88.26
9676;BME280;4876;42.656;23.292;2023-05-07T02:32:12;94532.69;;;10.04;88.43
9676;BME280;4876;42.656;23.292;2023-05-07T02:34:39;94535.38;;;10.12;87.47
9676;BME280;4876;42.656;23.292;2023-05-07T02:37:05;94539.22;;;10.06;87.41
9676;BME280;4876;42.656;23.292;2023-05-07T02:39:32;94530.50;;;9.97;88.89
9676;BME280;4876;42.656;23.292;2023-05-07T02:41:59;94541.63;;;9.94;88.20
9676;BME280;4876;42.656;23.292;2023-05-07T02:44:26;94539.59;;;9.91;88.66
9676;BME280;4876;42.656;23.292;2023-05-07T02:46:56;94545.56;;;9.83;89.16
9676;BME280;4876;42.656;23.292;2023-05-07T02:49:24;94539.97;;;9.76;89.66
9676;BME280;4876;42.656;23.292;2023-05-07T02:51:51;94544.38;;;9.89;89.86
9676;BME280;4876;42.656;23.292;2023-05-07T02:54:18;94545.31;;;9.93;88.45
9676;BME280;4876;42.656;23.292;2023-05-07T02:56:44;94544.66;;;9.87;88.41
9676;BME280;4876;42.656;23.292;2023-05-07T02:59:11;94543.94;;;9.73;89.06
9676;BME280;4876;42.656;23.292;2023-05-07T03:01:38;94555.47;;;9.86;89.17
9676;BME280;4876;42.656;23.292;2023-05-07T03:04:05;94544.06;;;9.90;88.61
9676;BME280;4876;42.656;23.292;2023-05-07T03:06:33;94547.47;;;9.91;87.93
9676;BME280;4876;42.656;23.292;2023-05-07T03:09:00;94551.94;;;9.90;88.26
9676;BME280;4876;42.656;23.292;2023-05-07T03:11:26;94555.94;;;9.88;88.61
9676;BME280;4876;42.656;23.292;2023-05-07T03:13:53;94564.41;;;9.85;88.73
9676;BME280;4876;42.656;23.292;2023-05-07T03:16:20;94558.19;;;9.81;89.34
9676;BME280;4876;42.656;23.292;2023-05-07T03:18:47;94564.63;;;9.75;89.76
9676;BME280;4876;42.656;23.292;2023-05-07T03:21:14;94569.78;;;9.57;90.46
9676;BME280;4876;42.656;23.292;2023-05-07T03:23:42;94562.88;;;9.84;89.77
9676;BME280;4876;42.656;23.292;2023-05-07T03:26:09;94567.88;;;9.94;88.75
9676;BME280;4876;42.656;23.292;2023-05-07T03:28:36;94566.63;;;10.14;87.53
9676;BME280;4876;42.656;23.292;2023-05-07T03:31:03;94574.78;;;10.35;86.58
9676;BME280;4876;42.656;23.292;2023-05-07T03:33:32;94568.88;;;10.60;85.19
9676;BME280;4876;42.656;23.292;2023-05-07T03:35:59;94575.50;;;10.89;83.47
9676;BME280;4876;42.656;23.292;2023-05-07T03:38:26;94576.81;;;11.26;81.75
9676;BME280;4876;42.656;23.292;2023-05-07T03:40:54;94583.66;;;11.70;79.67
9676;BME280;4876;42.656;23.292;2023-05-07T03:43:21;94579.16;;;12.14;78.18
9676;BME280;4876;42.656;23.292;2023-05-07T03:45:48;94583.84;;;12.64;75.03
9676;BME280;4876;42.656;23.292;2023-05-07T03:48:14;94586.53;;;12.93;73.66
9676;BME280;4876;42.656;23.292;2023-05-07T03:50:41;94588.81;;;13.33;71.55
9676;BME280;4876;42.656;23.292;2023-05-07T03:53:08;94596.63;;;13.30;71.82
9676;BME280;4876;42.656;23.292;2023-05-07T03:55:34;94585.88;;;12.97;73.17
9676;BME280;4876;42.656;23.292;2023-05-07T03:58:03;94591.28;;;13.38;72.63
9676;BME280;4876;42.656;23.292;2023-05-07T04:00:29;94533.03;;;13.56;69.88
9676;BME280;4876;42.656;23.292;2023-05-07T04:02:58;94596.78;;;13.75;70.49
9676;BME280;4876;42.656;23.292;2023-05-07T04:05:25;94593.09;;;13.17;72.46
9676;BME280;4876;42.656;23.292;2023-05-07T04:07:52;94605.56;;;13.08;73.05
9676;BME280;4876;42.656;23.292;2023-05-07T04:10:19;94595.44;;;12.80;74.74
9676;BME280;4876;42.656;23.292;2023-05-07T04:12:46;94618.88;;;12.82;75.08
9676;BME280;4876;42.656;23.292;2023-05-07T04:15:14;94627.97;;;12.55;76.63
9676;BME280;4876;42.656;23.292;2023-05-07T04:17:41;94633.22;;;13.02;75.13
9676;BME280;4876;42.656;23.292;2023-05-07T04:20:09;94629.03;;;13.01;74.55
9676;BME280;4876;42.656;23.292;2023-05-07T04:22:36;94630.06;;;13.46;72.64
9676;BME280;4876;42.656;23.292;2023-05-07T04:25:04;94633.09;;;13.87;70.42
9676;BME280;4876;42.656;23.292;2023-05-07T04:27:31;94640.63;;;13.46;72.44
9676;BME280;4876;42.656;23.292;2023-05-07T04:29:57;94633.19;;;13.90;70.36
9676;BME280;4876;42.656;23.292;2023-05-07T04:32:27;94643.63;;;14.49;67.91
9676;BME280;4876;42.656;23.292;2023-05-07T04:34:54;94636.97;;;14.76;66.70
9676;BME280;4876;42.656;23.292;2023-05-07T04:37:21;94639.72;;;14.80;66.71
9676;BME280;4876;42.656;23.292;2023-05-07T04:39:48;94647.72;;;15.29;64.12
9676;BME280;4876;42.656;23.292;2023-05-07T04:42:14;94654.56;;;15.42;64.11
9676;BME280;4876;42.656;23.292;2023-05-07T04:44:41;94649.63;;;15.41;64.03
9676;BME280;4876;42.656;23.292;2023-05-07T04:47:08;94651.25;;;15.82;62.83
9676;BME280;4876;42.656;23.292;2023-05-07T04:49:36;94658.78;;;15.68;62.89
9676;BME280;4876;42.656;23.292;2023-05-07T04:52:03;94645.38;;;15.88;62.30
9676;BME280;4876;42.656;23.292;2023-05-07T04:54:30;94649.22;;;16.03;62.24
9676;BME280;4876;42.656;23.292;2023-05-07T04:56:57;94650.03;;;15.79;63.00
9676;BME280;4876;42.656;23.292;2023-05-07T04:59:24;94628.56;;;15.97;62.35
9676;BME280;4876;42.656;23.292;2023-05-07T05:01:51;94649.13;;;16.28;61.44
9676;BME280;4876;42.656;23.292;2023-05-07T05:04:17;94649.41;;;16.38;61.40
9676;BME280;4876;42.656;23.292;2023-05-07T05:06:46;94650.38;;;16.74;60.46
9676;BME280;4876;42.656;23.292;2023-05-07T05:09:13;94645.22;;;16.65;60.25
9676;BME280;4876;42.656;23.292;2023-05-07T05:11:40;94649.94;;;15.64;63.56
9676;BME280;4876;42.656;23.292;2023-05-07T05:14:06;94641.34;;;15.67;63.43
9676;BME280;4876;42.656;23.292;2023-05-07T05:16:33;94641.28;;;15.91;63.76
9676;BME280;4876;42.656;23.292;2023-05-07T05:19:01;94637.88;;;16.19;61.90
9676;BME280;4876;42.656;23.292;2023-05-07T05:21:28;94642.72;;;15.88;63.45
9676;BME280;4876;42.656;23.292;2023-05-07T05:23:56;94642.31;;;16.14;62.78
9676;BME280;4876;42.656;23.292;2023-05-07T05:26:23;94644.34;;;16.61;60.96
9676;BME280;4876;42.656;23.292;2023-05-07T05:28:49;94648.94;;;16.64;61.12
9676;BME280;4876;42.656;23.292;2023-05-07T05:31:16;94647.00;;;16.89;60.94
9676;BME280;4876;42.656;23.292;2023-05-07T05:33:43;94646.84;;;16.70;60.77
9676;BME280;4876;42.656;23.292;2023-05-07T05:36:10;94654.06;;;16.41;61.86
9676;BME280;4876;42.656;23.292;2023-05-07T05:38:37;94655.91;;;16.97;59.94
9676;BME280;4876;42.656;23.292;2023-05-07T05:41:05;94639.00;;;17.05;59.25
9676;BME280;4876;42.656;23.292;2023-05-07T05:43:32;94656.81;;;16.89;60.42
9676;BME280;4876;42.656;23.292;2023-05-07T05:45:59;94652.56;;;16.84;59.70
9676;BME280;4876;42.656;23.292;2023-05-07T05:48:26;94639.00;;;17.05;58.67
9676;BME280;4876;42.656;23.292;2023-05-07T05:50:52;94655.56;;;17.46;57.71
9676;BME280;4876;42.656;23.292;2023-05-07T05:53:19;94658.69;;;16.88;59.35
9676;BME280;4876;42.656;23.292;2023-05-07T05:55:46;94652.72;;;17.07;59.20
9676;BME280;4876;42.656;23.292;2023-05-07T05:58:14;94651.63;;;17.08;59.54
9676;BME280;4876;42.656;23.292;2023-05-07T06:00:41;94655.38;;;16.63;59.82
9676;BME280;4876;42.656;23.292;2023-05-07T06:03:08;94655.72;;;17.06;58.50
9676;BME280;4876;42.656;23.292;2023-05-07T06:05:35;94658.22;;;17.14;59.19
9676;BME280;4876;42.656;23.292;2023-05-07T06:08:03;94658.47;;;16.93;60.39
9676;BME280;4876;42.656;23.292;2023-05-07T06:10:29;94653.41;;;17.36;58.70
9676;BME280;4876;42.656;23.292;2023-05-07T06:12:56;94652.03;;;17.10;59.36
9676;BME280;4876;42.656;23.292;2023-05-07T06:15:25;94651.09;;;17.18;59.04
9676;BME280;4876;42.656;23.292;2023-05-07T06:17:51;94653.84;;;16.90;60.60
9676;BME280;4876;42.656;23.292;2023-05-07T06:20:18;94652.44;;;17.60;58.45
9676;BME280;4876;42.656;23.292;2023-05-07T06:22:45;94652.63;;;17.19;59.64
9676;BME280;4876;42.656;23.292;2023-05-07T06:25:11;94652.19;;;17.49;57.88
9676;BME280;4876;42.656;23.292;2023-05-07T06:27:38;94652.00;;;17.73;58.29
9676;BME280;4876;42.656;23.292;2023-05-07T06:30:06;94645.81;;;17.69;57.77
9676;BME280;4876;42.656;23.292;2023-05-07T06:32:35;94643.69;;;17.75;56.98
9676;BME280;4876;42.656;23.292;2023-05-07T06:35:03;94642.66;;;17.99;56.14
9676;BME280;4876;42.656;23.292;2023-05-07T06:37:30;94636.09;;;18.32;55.48
9676;BME280;4876;42.656;23.292;2023-05-07T06:39:56;94642.25;;;18.16;55.59
9676;BME280;4876;42.656;23.292;2023-05-07T06:42:23;94641.97;;;18.41;54.91
9676;BME280;4876;42.656;23.292;2023-05-07T06:44:50;94645.91;;;18.27;54.27
9676;BME280;4876;42.656;23.292;2023-05-07T06:47:16;94634.41;;;18.43;54.37
9676;BME280;4876;42.656;23.292;2023-05-07T06:49:45;94624.03;;;17.99;54.49
9676;BME280;4876;42.656;23.292;2023-05-07T06:52:11;94618.22;;;17.58;56.98
9676;BME280;4876;42.656;23.292;2023-05-07T06:54:38;94628.09;;;17.93;55.57
9676;BME280;4876;42.656;23.292;2023-05-07T06:57:05;94626.06;;;18.44;54.78
9676;BME280;4876;42.656;23.292;2023-05-07T06:59:32;94623.34;;;18.41;54.43
9676;BME280;4876;42.656;23.292;2023-05-07T07:01:59;94624.81;;;18.58;54.37
9676;BME280;4876;42.656;23.292;2023-05-07T07:04:26;94628.44;;;18.49;54.83
9676;BME280;4876;42.656;23.292;2023-05-07T07:06:55;94628.66;;;18.60;54.90
9676;BME280;4876;42.656;23.292;2023-05-07T07:09:22;94630.94;;;18.62;54.41
9676;BME280;4876;42.656;23.292;2023-05-07T07:11:49;94636.56;;;18.99;53.58
9676;BME280;4876;42.656;23.292;2023-05-07T07:14:16;94631.84;;;18.89;53.50
9676;BME280;4876;42.656;23.292;2023-05-07T07:16:42;94622.09;;;18.15;55.92
9676;BME280;4876;42.656;23.292;2023-05-07T07:19:09;94618.56;;;18.50;54.42
9676;BME280;4876;42.656;23.292;2023-05-07T07:21:36;94619.81;;;18.98;53.25
9676;BME280;4876;42.656;23.292;2023-05-07T07:24:04;94621.47;;;19.29;52.20
9676;BME280;4876;42.656;23.292;2023-05-07T07:26:31;94617.00;;;19.37;52.87
9676;BME280;4876;42.656;23.292;2023-05-07T07:28:58;94613.50;;;19.82;50.51
9676;BME280;4876;42.656;23.292;2023-05-07T07:31:25;94615.03;;;19.07;52.28
9676;BME280;4876;42.656;23.292;2023-05-07T07:33:51;94613.19;;;19.87;50.16
9676;BME280;4876;42.656;23.292;2023-05-07T07:36:18;94617.25;;;19.05;52.77
9676;BME280;4876;42.656;23.292;2023-05-07T07:38:45;94615.09;;;19.60;51.51
9676;BME280;4876;42.656;23.292;2023-05-07T07:41:13;94621.91;;;19.58;51.77
9676;BME280;4876;42.656;23.292;2023-05-07T07:43:40;94617.13;;;19.44;52.09
9676;BME280;4876;42.656;23.292;2023-05-07T07:46:06;94616.09;;;19.52;52.32
9676;BME280;4876;42.656;23.292;2023-05-07T07:48:33;94620.41;;;19.60;52.65
9676;BME280;4876;42.656;23.292;2023-05-07T07:51:00;94618.69;;;19.72;50.76
9676;BME280;4876;42.656;23.292;2023-05-07T07:53:26;94627.59;;;19.83;51.03
9676;BME280;4876;42.656;23.292;2023-05-07T07:55:53;94637.31;;;18.96;52.42
9676;BME280;4876;42.656;23.292;2023-05-07T07:58:21;94636.28;;;19.04;53.79
9676;BME280;4876;42.656;23.292;2023-05-07T08:00:50;94623.25;;;19.48;51.54
9676;BME280;4876;42.656;23.292;2023-05-07T08:03:16;94619.53;;;19.53;51.94
9676;BME280;4876;42.656;23.292;2023-05-07T08:05:45;94611.41;;;19.19;53.07
9676;BME280;4876;42.656;23.292;2023-05-07T08:08:11;94595.91;;;19.28;52.42
9676;BME280;4876;42.656;23.292;2023-05-07T08:10:38;94618.00;;;19.52;51.53
9676;BME280;4876;42.656;23.292;2023-05-07T08:13:05;94614.50;;;19.74;50.60
9676;BME280;4876;42.656;23.292;2023-05-07T08:15:33;94616.63;;;19.61;50.42
9676;BME280;4876;42.656;23.292;2023-05-07T08:20:28;94612.47;;;18.92;53.17
9676;BME280;4876;42.656;23.292;2023-05-07T08:22:54;94614.59;;;19.05;52.50
9676;BME280;4876;42.656;23.292;2023-05-07T08:25:21;94616.31;;;19.44;51.25
9676;BME280;4876;42.656;23.292;2023-05-07T08:27:48;94618.53;;;19.87;51.03
9676;BME280;4876;42.656;23.292;2023-05-07T08:30:15;94610.16;;;19.93;50.58
9676;BME280;4876;42.656;23.292;2023-05-07T08:32:43;94608.88;;;20.09;50.46
9676;BME280;4876;42.656;23.292;2023-05-07T08:35:10;94607.47;;;19.62;50.80
9676;BME280;4876;42.656;23.292;2023-05-07T08:37:37;94605.78;;;19.51;50.74
9676;BME280;4876;42.656;23.292;2023-05-07T08:40:05;94593.88;;;19.71;50.41
9676;BME280;4876;42.656;23.292;2023-05-07T08:42:35;94603.69;;;19.94;50.10
9676;BME280;4876;42.656;23.292;2023-05-07T08:45:04;94595.41;;;20.32;50.24
9676;BME280;4876;42.656;23.292;2023-05-07T08:47:40;94602.28;;;20.33;49.77
9676;BME280;4876;42.656;23.292;2023-05-07T08:50:10;94592.66;;;19.65;51.22
9676;BME280;4876;42.656;23.292;2023-05-07T08:52:37;94596.50;;;19.98;49.32
9676;BME280;4876;42.656;23.292;2023-05-07T08:55:06;94596.81;;;19.93;49.74
9676;BME280;4876;42.656;23.292;2023-05-07T08:57:33;94596.69;;;20.12;48.46
9676;BME280;4876;42.656;23.292;2023-05-07T09:00:01;94597.19;;;20.55;47.79
9676;BME280;4876;42.656;23.292;2023-05-07T09:02:28;94588.13;;;20.63;47.57
9676;BME280;4876;42.656;23.292;2023-05-07T09:04:55;94589.44;;;20.83;48.03
9676;BME280;4876;42.656;23.292;2023-05-07T09:07:23;94581.25;;;21.06;46.67
9676;BME280;4876;42.656;23.292;2023-05-07T09:09:51;94580.44;;;21.02;46.77
9676;BME280;4876;42.656;23.292;2023-05-07T09:12:18;94570.53;;;21.06;46.95
9676;BME280;4876;42.656;23.292;2023-05-07T09:14:45;94572.75;;;20.93;47.70
9676;BME280;4876;42.656;23.292;2023-05-07T09:17:12;94568.22;;;21.05;45.89
9676;BME280;4876;42.656;23.292;2023-05-07T09:19:39;94567.97;;;21.24;46.14
9676;BME280;4876;42.656;23.292;2023-05-07T09:22:06;94564.38;;;21.50;45.87
9676;BME280;4876;42.656;23.292;2023-05-07T09:24:34;94569.41;;;21.11;46.16
9676;BME280;4876;42.656;23.292;2023-05-07T09:27:03;94546.88;;;21.08;45.62
9676;BME280;4876;42.656;23.292;2023-05-07T09:29:30;94566.22;;;21.39;45.02
9676;BME280;4876;42.656;23.292;2023-05-07T09:32:01;94564.41;;;21.61;44.28
9676;BME280;4876;42.656;23.292;2023-05-07T09:34:28;94568.19;;;21.49;44.39
9676;BME280;4876;42.656;23.292;2023-05-07T09:36:55;94572.88;;;21.63;44.13
9676;BME280;4876;42.656;23.292;2023-05-07T09:39:23;94566.63;;;21.44;44.17
9676;BME280;4876;42.656;23.292;2023-05-07T09:41:51;94561.81;;;21.71;42.68
9676;BME280;4876;42.656;23.292;2023-05-07T09:44:20;94558.34;;;21.67;42.93
9676;BME280;4876;42.656;23.292;2023-05-07T09:46:53;94556.47;;;21.78;42.44
9676;BME280;4876;42.656;23.292;2023-05-07T09:49:22;94550.47;;;21.30;43.87
9676;BME280;4876;42.656;23.292;2023-05-07T09:51:50;94545.13;;;21.30;44.67
9676;BME280;4876;42.656;23.292;2023-05-07T09:54:17;94547.09;;;21.40;45.40
9676;BME280;4876;42.656;23.292;2023-05-07T09:56:45;94551.00;;;21.54;43.08
9676;BME280;4876;42.656;23.292;2023-05-07T09:59:15;94544.84;;;21.46;43.99
9676;BME280;4876;42.656;23.292;2023-05-07T10:01:44;94545.22;;;20.93;45.97
9676;BME280;4876;42.656;23.292;2023-05-07T10:04:11;94542.44;;;20.79;44.67
9676;BME280;4876;42.656;23.292;2023-05-07T10:06:38;94528.88;;;21.05;43.85
9676;BME280;4876;42.656;23.292;2023-05-07T10:09:06;94543.50;;;21.18;43.43
9676;BME280;4876;42.656;23.292;2023-05-07T10:11:34;94541.19;;;21.17;40.99
9676;BME280;4876;42.656;23.292;2023-05-07T10:14:01;94534.56;;;21.55;40.89
9676;BME280;4876;42.656;23.292;2023-05-07T10:16:31;94536.22;;;21.74;41.74
9676;BME280;4876;42.656;23.292;2023-05-07T10:19:02;94536.06;;;21.45;42.18
9676;BME280;4876;42.656;23.292;2023-05-07T10:21:29;94509.13;;;21.20;41.52
9676;BME280;4876;42.656;23.292;2023-05-07T10:23:58;94533.41;;;20.97;42.69
9676;BME280;4876;42.656;23.292;2023-05-07T10:26:28;94529.81;;;20.79;43.51
9676;BME280;4876;42.656;23.292;2023-05-07T10:28:59;94525.69;;;20.85;43.49
9676;BME280;4876;42.656;23.292;2023-05-07T10:31:50;94519.63;;;20.92;44.27
9676;BME280;4876;42.656;23.292;2023-05-07T10:34:21;94499.16;;;21.17;44.20
9676;BME280;4876;42.656;23.292;2023-05-07T10:36:50;94506.28;;;21.50;42.43
9676;BME280;4876;42.656;23.292;2023-05-07T10:39:19;94510.22;;;21.74;41.98
9676;BME280;4876;42.656;23.292;2023-05-07T10:41:47;94513.25;;;21.69;42.66
9676;BME280;4876;42.656;23.292;2023-05-07T10:44:25;94512.22;;;21.26;43.25
9676;BME280;4876;42.656;23.292;2023-05-07T10:47:06;94508.13;;;21.39;43.43
9676;BME280;4876;42.656;23.292;2023-05-07T10:49:35;94508.59;;;21.56;43.34
9676;BME280;4876;42.656;23.292;2023-05-07T10:52:12;94508.69;;;21.77;44.05
9676;BME280;4876;42.656;23.292;2023-05-07T10:54:39;94508.19;;;21.54;42.55
9676;BME280;4876;42.656;23.292;2023-05-07T10:57:33;94497.13;;;21.59;42.44
9676;BME280;4876;42.656;23.292;2023-05-07T11:00:03;94495.25;;;21.63;42.24
9676;BME280;4876;42.656;23.292;2023-05-07T11:03:06;94496.47;;;21.90;41.93
9676;BME280;4876;42.656;23.292;2023-05-07T11:05:34;94506.00;;;21.77;41.70
9676;BME280;4876;42.656;23.292;2023-05-07T11:08:02;94507.84;;;21.66;41.33
9676;BME280;4876;42.656;23.292;2023-05-07T11:10:48;94497.53;;;21.64;41.71
9676;BME280;4876;42.656;23.292;2023-05-07T11:13:16;94493.31;;;21.67;43.07
9676;BME280;4876;42.656;23.292;2023-05-07T11:15:44;94484.91;;;21.65;41.71
9676;BME280;4876;42.656;23.292;2023-05-07T11:18:13;94495.66;;;21.68;42.13
9676;BME280;4876;42.656;23.292;2023-05-07T11:20:56;94491.94;;;22.09;42.18
9676;BME280;4876;42.656;23.292;2023-05-07T11:26:47;94487.25;;;21.77;41.62
9676;BME280;4876;42.656;23.292;2023-05-07T11:29:16;94484.09;;;21.50;41.29
9676;BME280;4876;42.656;23.292;2023-05-07T11:31:42;94485.28;;;21.56;41.79
9676;BME280;4876;42.656;23.292;2023-05-07T11:34:11;94477.28;;;21.70;41.32
9676;BME280;4876;42.656;23.292;2023-05-07T11:36:41;94478.88;;;21.82;41.00
9676;BME280;4876;42.656;23.292;2023-05-07T11:39:28;94486.56;;;21.94;41.39
9676;BME280;4876;42.656;23.292;2023-05-07T11:41:57;94471.31;;;22.09;41.21
9676;BME280;4876;42.656;23.292;2023-05-07T11:44:23;94481.28;;;22.16;41.74
9676;BME280;4876;42.656;23.292;2023-05-07T11:46:50;94483.56;;;22.14;40.75
9676;BME280;4876;42.656;23.292;2023-05-07T11:49:18;94475.97;;;22.44;40.07
9676;BME280;4876;42.656;23.292;2023-05-07T11:51:45;94485.91;;;22.44;40.59
9676;BME280;4876;42.656;23.292;2023-05-07T11:54:16;94477.44;;;22.17;39.88
9676;BME280;4876;42.656;23.292;2023-05-07T11:56:44;94473.69;;;22.43;38.86
9676;BME280;4876;42.656;23.292;2023-05-07T11:59:11;94475.97;;;22.30;38.63
9676;BME280;4876;42.656;23.292;2023-05-07T12:01:37;94470.53;;;22.09;39.44
9676;BME280;4876;42.656;23.292;2023-05-07T12:04:04;94466.78;;;22.38;38.49
9676;BME280;4876;42.656;23.292;2023-05-07T12:06:36;94469.06;;;22.43;38.98
9676;BME280;4876;42.656;23.292;2023-05-07T12:09:03;94457.19;;;22.66;37.76
9676;BME280;4876;42.656;23.292;2023-05-07T12:11:32;94447.63;;;22.50;38.13
9676;BME280;4876;42.656;23.292;2023-05-07T12:13:59;94446.09;;;22.49;37.84
9676;BME280;4876;42.656;23.292;2023-05-07T12:16:26;94453.75;;;22.40;37.78
9676;BME280;4876;42.656;23.292;2023-05-07T12:18:53;94444.56;;;22.45;37.96
9676;BME280;4876;42.656;23.292;2023-05-07T12:21:20;94447.25;;;22.55;39.02
9676;BME280;4876;42.656;23.292;2023-05-07T12:23:49;94423.13;;;22.34;37.44
9676;BME280;4876;42.656;23.292;2023-05-07T12:26:16;94443.03;;;22.69;36.83
9676;BME280;4876;42.656;23.292;2023-05-07T12:28:43;94436.13;;;23.03;36.25
9676;BME280;4876;42.656;23.292;2023-05-07T12:31:09;94431.91;;;22.95;36.66
9676;BME280;4876;42.656;23.292;2023-05-07T12:33:36;94425.00;;;22.73;37.83
9676;BME280;4876;42.656;23.292;2023-05-07T12:36:05;94420.81;;;22.75;39.46
9676;BME280;4876;42.656;23.292;2023-05-07T12:38:37;94408.56;;;22.71;37.67
9676;BME280;4876;42.656;23.292;2023-05-07T12:41:08;94421.59;;;22.76;37.12
9676;BME280;4876;42.656;23.292;2023-05-07T12:43:35;94416.97;;;23.01;37.15
9676;BME280;4876;42.656;23.292;2023-05-07T12:46:04;94420.38;;;23.23;37.78
9676;BME280;4876;42.656;23.292;2023-05-07T12:48:31;94398.22;;;22.91;36.83
9676;BME280;4876;42.656;23.292;2023-05-07T12:51:00;94416.59;;;22.78;36.92
9676;BME280;4876;42.656;23.292;2023-05-07T12:53:27;94403.97;;;22.89;38.60
9676;BME280;4876;42.656;23.292;2023-05-07T12:55:56;94400.81;;;23.16;35.91
9676;BME280;4876;42.656;23.292;2023-05-07T12:58:27;94396.69;;;22.90;36.67
9676;BME280;4876;42.656;23.292;2023-05-07T13:00:54;94400.47;;;23.06;36.65
9676;BME280;4876;42.656;23.292;2023-05-07T13:03:25;94396.97;;;23.17;36.24
9676;BME280;4876;42.656;23.292;2023-05-07T13:05:53;94389.41;;;22.72;36.63
9676;BME280;4876;42.656;23.292;2023-05-07T13:08:25;94383.28;;;22.90;36.17
9676;BME280;4876;42.656;23.292;2023-05-07T13:10:51;94384.81;;;22.87;36.05
9676;BME280;4876;42.656;23.292;2023-05-07T13:13:18;94380.22;;;22.88;36.26
9676;BME280;4876;42.656;23.292;2023-05-07T13:15:47;94388.25;;;22.91;36.36
9676;BME280;4876;42.656;23.292;2023-05-07T13:18:13;94377.13;;;22.82;36.39
9676;BME280;4876;42.656;23.292;2023-05-07T13:20:40;94371.00;;;22.89;36.84
9676;BME280;4876;42.656;23.292;2023-05-07T13:23:07;94384.81;;;22.58;36.87